createdAt,value
2022-12-03T12:01:59.247Z,171.75
2022-12-03T12:03:44.556Z,168.25
2022-12-03T12:07:10.987Z,157.00
2022-12-03T12:08:56.162Z,160.25
2022-12-03T12:10:40.460Z,169.00
2022-12-03T12:12:39.037Z,163.00
2022-12-03T12:14:12.169Z,160.50
2022-12-03T12:15:44.206Z,163.75
2022-12-03T12:17:29.499Z,139.75
2022-12-03T12:19:27.766Z,140.75
2022-12-03T12:21:37.269Z,138.25
2022-12-03T12:23:22.593Z,145.25
2022-12-03T12:24:56.045Z,138.50
2022-12-03T12:26:28.023Z,139.75
2022-12-03T12:27:59.683Z,135.25
2022-12-03T12:29:31.399Z,130.25
2022-12-03T12:31:03.247Z,117.25
2022-12-03T12:32:42.043Z,130.75
2022-12-03T12:34:13.776Z,120.75
2022-12-03T12:35:45.567Z,125.25
2022-12-03T12:37:32.585Z,129.75
2022-12-03T12:39:14.294Z,115.75
2022-12-03T12:40:49.191Z,117.00
2022-12-03T12:42:36.463Z,113.75
2022-12-03T12:44:11.222Z,112.00
2022-12-03T12:45:43.288Z,101.40
2022-12-03T12:47:15.045Z,107.80
2022-12-03T12:48:46.729Z,106.20
2022-12-03T12:50:18.603Z,103.60
2022-12-03T12:51:50.457Z,95.50
2022-12-03T12:53:26.453Z,95.75
2022-12-03T12:55:04.452Z,87.00
2022-12-03T12:56:36.970Z,99.80
2022-12-03T12:58:14.010Z,103.60
2022-12-03T12:59:45.743Z,116.60
2022-12-03T13:01:21.462Z,109.75
2022-12-03T13:02:55.346Z,104.20
2022-12-03T13:04:27.153Z,108.75
2022-12-03T13:07:48.256Z,124.25
2022-12-03T13:09:21.715Z,126.50
2022-12-03T13:10:54.874Z,137.75
2022-12-03T13:12:27.036Z,138.50
2022-12-03T13:13:58.726Z,150.75
2022-12-03T13:15:35.625Z,139.75
2022-12-03T13:17:18.951Z,146.00
2022-12-03T13:18:54.792Z,155.00
2022-12-03T13:20:26.603Z,148.75
2022-12-03T13:22:01.941Z,152.25
2022-12-03T13:23:34.665Z,157.50
2022-12-03T13:25:58.219Z,155.50
2022-12-03T13:27:32.764Z,157.00
2022-12-03T13:29:15.176Z,156.25
2022-12-03T13:30:47.002Z,151.75
2022-12-03T13:32:29.243Z,154.75
2022-12-03T13:34:00.949Z,214.33
2022-12-03T13:35:36.009Z,193.33
2022-12-03T13:37:13.277Z,177.00
2022-12-03T13:38:45.000Z,152.50
2022-12-03T13:40:19.428Z,163.25
2022-12-03T13:42:09.846Z,192.75
2022-12-03T13:43:44.529Z,278.75
2022-12-03T13:45:16.451Z,206.67
2022-12-03T13:46:48.180Z,199.67
2022-12-03T13:48:23.613Z,180.00
2022-12-03T13:50:03.567Z,175.75
2022-12-03T13:51:35.401Z,170.75
2022-12-03T13:53:25.082Z,156.50
2022-12-03T13:54:56.903Z,158.50
2022-12-03T13:56:29.835Z,175.75
2022-12-03T13:58:01.561Z,183.00
2022-12-03T13:59:33.363Z,175.00
2022-12-03T14:01:05.387Z,200.50
2022-12-03T14:02:37.206Z,174.75
2022-12-03T14:04:09.109Z,179.00
2022-12-03T14:05:40.846Z,185.75
2022-12-03T14:07:12.598Z,178.50
2022-12-03T14:08:44.351Z,182.50
2022-12-03T14:10:16.886Z,173.25
2022-12-03T14:12:07.351Z,181.50
2022-12-03T14:13:39.109Z,179.75
2022-12-03T14:15:11.372Z,184.75
2022-12-03T14:16:43.115Z,168.00
2022-12-03T14:18:14.840Z,177.00
2022-12-03T14:19:46.545Z,183.50
2022-12-03T14:21:18.270Z,176.75
2022-12-03T14:22:51.288Z,179.25
2022-12-03T14:24:25.709Z,191.75
2022-12-03T14:25:57.541Z,189.00
2022-12-03T14:27:29.414Z,185.75
2022-12-03T14:29:05.847Z,186.75
2022-12-03T14:30:40.200Z,199.00
2022-12-03T14:32:12.206Z,192.00
2022-12-03T14:33:44.068Z,187.50
2022-12-03T14:35:15.772Z,180.50
2022-12-03T14:36:47.548Z,187.50
2022-12-03T14:38:19.216Z,184.50
2022-12-03T14:39:51.230Z,189.75
2022-12-03T14:41:41.525Z,184.25
2022-12-03T14:43:13.223Z,189.75
2022-12-03T14:44:46.604Z,181.25
2022-12-03T14:46:18.469Z,178.75
2022-12-03T14:47:50.207Z,168.00
2022-12-03T14:49:22.302Z,170.25
2022-12-03T14:50:54.045Z,165.25
2022-12-03T14:52:25.837Z,168.50
2022-12-03T14:53:57.530Z,284.25
2022-12-03T14:55:29.243Z,214.00
2022-12-03T14:57:02.341Z,218.67
2022-12-03T14:58:34.343Z,224.67
2022-12-03T15:00:06.814Z,218.33
2022-12-03T15:01:38.598Z,206.33
2022-12-03T15:03:12.308Z,209.00
2022-12-03T15:04:44.030Z,205.67
2022-12-03T15:06:15.775Z,208.00
2022-12-03T15:07:47.510Z,193.33
2022-12-03T15:09:19.428Z,192.67
2022-12-03T15:10:51.144Z,195.25
2022-12-03T15:12:22.785Z,194.25
2022-12-03T15:13:54.494Z,181.25
2022-12-03T15:15:27.066Z,174.50
2022-12-03T15:16:58.957Z,183.50
2022-12-03T15:18:31.160Z,181.00
2022-12-03T15:20:03.109Z,178.75
2022-12-03T15:21:35.027Z,167.75
2022-12-03T15:23:09.905Z,171.75
2022-12-03T15:24:45.611Z,156.50
2022-12-03T15:26:17.281Z,158.50
2022-12-03T15:27:48.929Z,161.50
2022-12-03T15:29:20.859Z,153.75
2022-12-03T15:30:52.610Z,148.25
2022-12-03T15:32:24.633Z,152.00
2022-12-03T15:33:56.265Z,155.00
2022-12-03T15:35:28.429Z,147.50
2022-12-03T15:37:01.924Z,144.75
2022-12-03T15:38:43.337Z,139.75
2022-12-03T15:42:04.264Z,127.00
2022-12-03T15:43:35.965Z,135.00
2022-12-03T15:45:13.440Z,113.75
2022-12-03T15:46:46.942Z,128.75
2022-12-03T15:48:18.648Z,134.75
2022-12-03T15:49:50.333Z,143.25
2022-12-03T15:51:22.002Z,153.75
2022-12-03T15:54:45.796Z,155.50
2022-12-03T15:56:17.512Z,139.00
2022-12-03T15:59:38.910Z,148.00
2022-12-03T16:01:10.719Z,148.00
2022-12-03T16:02:46.214Z,145.50
2022-12-03T16:04:20.788Z,135.00
2022-12-03T16:05:52.470Z,141.75
2022-12-03T16:07:24.142Z,143.00
2022-12-03T16:08:55.826Z,145.00
2022-12-03T16:10:27.480Z,150.75
2022-12-03T16:11:59.155Z,142.00
2022-12-03T16:13:30.889Z,136.75
2022-12-03T16:15:02.572Z,136.00
2022-12-03T16:16:34.254Z,129.25
2022-12-03T16:18:06.079Z,132.00
2022-12-03T16:19:37.777Z,129.50
2022-12-03T16:21:09.439Z,129.00
2022-12-03T16:22:41.109Z,111.75
2022-12-03T16:24:12.936Z,120.00
2022-12-03T16:25:44.764Z,128.50
2022-12-03T16:27:16.403Z,143.25
2022-12-03T16:28:48.271Z,126.00
2022-12-03T16:30:20.159Z,148.75
2022-12-03T16:31:51.819Z,141.75
2022-12-03T16:33:27.520Z,152.25
2022-12-03T16:34:59.751Z,151.00
2022-12-03T16:36:31.723Z,150.75
2022-12-03T16:38:03.416Z,150.50
2022-12-03T16:41:22.568Z,143.00
2022-12-03T16:42:54.397Z,150.50
2022-12-03T16:44:52.424Z,151.75
2022-12-03T16:46:27.131Z,136.75
2022-12-03T16:49:49.640Z,142.25
2022-12-03T16:51:21.439Z,139.25
2022-12-03T16:52:53.180Z,134.50
2022-12-03T16:54:24.849Z,135.50
2022-12-03T16:55:56.796Z,144.50
2022-12-03T16:57:33.330Z,135.75
2022-12-03T16:59:05.495Z,119.50
2022-12-03T17:00:37.258Z,127.25
2022-12-03T17:02:12.998Z,140.25
2022-12-03T17:03:44.839Z,135.25
2022-12-03T17:05:16.560Z,126.25
2022-12-03T17:06:48.246Z,130.00
2022-12-03T17:08:20.147Z,128.75
2022-12-03T17:09:51.966Z,131.00
2022-12-03T17:11:23.828Z,126.25
2022-12-03T17:13:11.175Z,126.75
2022-12-03T17:14:43.049Z,127.25
2022-12-03T17:16:14.758Z,122.50
2022-12-03T17:17:46.626Z,130.25
2022-12-03T17:19:18.313Z,138.25
2022-12-03T17:20:49.994Z,136.75
2022-12-03T17:22:21.699Z,123.50
2022-12-03T17:23:53.425Z,136.75
2022-12-03T17:25:25.234Z,135.50
2022-12-03T17:26:58.051Z,140.50
2022-12-03T17:28:29.803Z,140.75
2022-12-03T17:30:01.531Z,129.25
2022-12-03T17:31:38.425Z,123.00
2022-12-03T17:33:13.257Z,128.75
2022-12-03T17:34:44.984Z,119.25
2022-12-03T17:36:16.710Z,122.75
2022-12-03T17:37:48.408Z,123.25
2022-12-03T17:39:20.113Z,120.25
2022-12-03T17:40:51.912Z,107.25
2022-12-03T17:42:23.618Z,112.00
2022-12-03T17:43:55.318Z,107.25
2022-12-03T17:45:27.056Z,108.00
2022-12-03T17:46:58.861Z,107.50
2022-12-03T17:48:31.368Z,118.20
2022-12-03T17:50:03.139Z,113.40
2022-12-03T17:51:34.919Z,104.60
2022-12-03T17:53:10.188Z,113.80
2022-12-03T17:55:08.963Z,106.40
2022-12-03T17:56:33.706Z,107.60
2022-12-03T17:58:05.600Z,100.60
2022-12-03T17:59:37.320Z,108.20
2022-12-03T18:01:10.452Z,94.40
2022-12-03T18:02:42.093Z,100.40
2022-12-03T18:04:13.771Z,96.20
2022-12-03T18:05:45.419Z,95.60
2022-12-03T18:07:17.082Z,99.50
2022-12-03T18:08:48.726Z,100.75
2022-12-03T18:10:20.404Z,87.75
2022-12-03T18:11:52.084Z,91.50
2022-12-03T18:13:23.823Z,77.25
2022-12-03T18:14:55.486Z,82.75
2022-12-03T18:16:28.938Z,86.25
2022-12-03T18:18:00.693Z,87.75
2022-12-03T18:19:32.415Z,79.75
2022-12-03T18:21:04.326Z,80.50
2022-12-03T18:22:36.114Z,86.00
2022-12-03T18:24:08.031Z,66.75
2022-12-03T18:25:39.755Z,73.25
2022-12-03T18:27:11.423Z,68.50
2022-12-03T18:28:43.165Z,60.75
2022-12-03T18:30:15.079Z,70.75
2022-12-03T18:31:46.843Z,65.25
2022-12-03T18:33:19.049Z,64.50
2022-12-03T18:34:50.884Z,66.50
2022-12-03T18:36:23.619Z,64.00
2022-12-03T18:37:55.346Z,203.00
2022-12-03T18:39:33.844Z,242.33
2022-12-03T18:41:05.585Z,157.25
2022-12-03T18:42:37.206Z,152.25
2022-12-03T18:44:09.755Z,139.00
2022-12-03T18:45:41.762Z,143.25
2022-12-03T18:47:17.821Z,122.75
2022-12-03T18:48:49.695Z,131.00
2022-12-03T18:50:21.343Z,123.25
2022-12-03T18:51:59.069Z,137.75
2022-12-03T18:53:31.338Z,147.50
2022-12-03T18:55:03.053Z,139.00
2022-12-03T18:56:34.656Z,152.00
2022-12-03T18:58:06.419Z,143.00
2022-12-03T18:59:38.164Z,142.00
2022-12-03T19:01:20.370Z,147.25
2022-12-03T19:03:03.033Z,153.00
2022-12-03T19:04:35.373Z,145.00
2022-12-03T19:06:16.922Z,133.50
2022-12-03T19:07:55.093Z,144.50
2022-12-03T19:09:26.849Z,142.50
2022-12-03T19:10:59.583Z,145.00
2022-12-03T19:12:31.740Z,145.50
2022-12-03T19:14:03.413Z,147.00
2022-12-03T19:15:38.642Z,140.25
2022-12-03T19:17:10.383Z,134.75
2022-12-03T19:18:42.093Z,143.25
2022-12-03T19:20:13.779Z,133.50
2022-12-03T19:21:45.435Z,138.75
2022-12-03T19:23:17.474Z,135.75
2022-12-03T19:24:49.129Z,130.75
2022-12-03T19:26:20.822Z,125.00
2022-12-03T19:27:55.090Z,128.50
2022-12-03T19:29:27.041Z,112.00
2022-12-03T19:31:03.225Z,113.50
2022-12-03T19:32:35.274Z,105.00
2022-12-03T19:34:06.969Z,111.25
2022-12-03T19:35:41.483Z,120.25
2022-12-03T19:37:13.349Z,115.60
2022-12-03T19:38:47.511Z,115.00
2022-12-03T19:40:21.363Z,99.60
2022-12-03T19:41:53.037Z,107.00
2022-12-03T19:43:24.696Z,101.80
2022-12-03T19:44:56.472Z,106.40
2022-12-03T19:46:31.323Z,104.20
2022-12-03T19:48:03.099Z,98.40
2022-12-03T19:49:34.842Z,95.75
2022-12-03T19:51:26.607Z,96.25
2022-12-03T19:52:58.598Z,91.00
2022-12-03T19:54:30.305Z,90.75
2022-12-03T19:56:09.932Z,87.00
2022-12-03T19:57:41.560Z,82.50
2022-12-03T19:59:13.515Z,82.00
2022-12-03T20:00:45.280Z,81.25
2022-12-03T20:02:17.052Z,78.75
2022-12-03T20:03:51.015Z,78.50
2022-12-03T20:05:22.832Z,100.00
2022-12-03T20:06:54.573Z,100.80
2022-12-03T20:08:26.216Z,118.50
2022-12-03T20:09:58.194Z,100.25
2022-12-03T20:11:31.417Z,121.00
2022-12-03T20:13:03.269Z,122.75
2022-12-03T20:14:34.953Z,103.75
2022-12-03T20:16:08.627Z,117.00
2022-12-03T20:17:40.339Z,110.25
2022-12-03T20:19:14.404Z,116.00
2022-12-03T20:20:46.066Z,108.50
2022-12-03T20:22:17.740Z,142.25
2022-12-03T20:23:49.494Z,145.00
2022-12-03T20:25:21.249Z,145.75
2022-12-03T20:26:52.872Z,153.25
2022-12-03T20:28:24.907Z,145.25
2022-12-03T20:29:57.016Z,153.50
2022-12-03T20:31:30.546Z,154.50
2022-12-03T20:33:02.367Z,166.75
2022-12-03T20:34:37.176Z,163.00
2022-12-03T20:36:09.591Z,152.75
2022-12-03T20:37:41.503Z,158.75
2022-12-03T20:39:13.172Z,179.25
2022-12-03T20:40:44.798Z,171.00
2022-12-03T20:42:16.495Z,182.00
2022-12-03T20:43:48.182Z,175.25
2022-12-03T20:45:19.932Z,178.50
2022-12-03T20:46:51.586Z,179.00
2022-12-03T20:48:23.262Z,184.75
2022-12-03T20:49:55.174Z,182.75
2022-12-03T20:51:29.710Z,184.75
2022-12-03T20:53:23.144Z,181.00
2022-12-03T20:57:45.266Z,162.00
2022-12-03T20:59:17.245Z,189.25
2022-12-03T21:00:49.239Z,195.00
2022-12-03T21:02:21.264Z,185.00
2022-12-03T21:03:54.218Z,187.67
2022-12-03T21:05:25.888Z,192.67
2022-12-03T21:06:57.752Z,192.67
2022-12-03T21:08:41.101Z,179.50
2022-12-03T21:10:32.607Z,181.00
2022-12-03T21:12:04.524Z,190.75
2022-12-03T21:13:36.314Z,174.50
2022-12-03T21:15:08.404Z,171.75
2022-12-03T21:18:33.970Z,171.75
2022-12-03T21:20:06.118Z,176.25
2022-12-03T21:21:37.839Z,158.50
2022-12-03T21:23:09.572Z,153.75
2022-12-03T21:24:42.825Z,165.75
2022-12-03T21:26:16.206Z,165.75
2022-12-03T21:27:47.870Z,157.75
2022-12-03T21:29:19.549Z,160.00
2022-12-03T21:30:52.360Z,151.00
2022-12-03T21:32:24.127Z,171.75
2022-12-03T21:33:56.140Z,148.75
2022-12-03T21:35:27.866Z,156.00
2022-12-03T21:36:59.583Z,143.50
2022-12-03T21:38:31.667Z,136.00
2022-12-03T21:40:03.586Z,143.00
2022-12-03T21:41:35.595Z,126.50
2022-12-03T21:43:07.312Z,133.00
2022-12-03T21:44:39.151Z,135.00
2022-12-03T21:47:09.509Z,153.75
2022-12-03T21:48:05.076Z,156.00
2022-12-03T21:49:38.469Z,164.75
2022-12-03T21:51:12.362Z,174.75
2022-12-03T21:52:44.041Z,176.00
2022-12-03T21:54:15.838Z,167.25
2022-12-03T21:55:47.582Z,168.00
2022-12-03T21:57:19.406Z,175.25
2022-12-03T21:58:51.053Z,172.25
2022-12-03T22:00:22.870Z,164.50
2022-12-03T22:01:54.788Z,164.00
2022-12-03T22:03:26.772Z,156.00
2022-12-03T22:04:58.508Z,152.75
2022-12-03T22:06:30.176Z,163.50
2022-12-03T22:08:01.939Z,152.50
2022-12-03T22:09:33.705Z,153.00
2022-12-03T22:11:07.441Z,148.00
2022-12-03T22:12:40.892Z,176.25
2022-12-03T22:14:12.799Z,152.00
2022-12-03T22:15:45.023Z,145.25
2022-12-03T22:17:16.819Z,138.75
2022-12-03T22:18:48.878Z,168.00
2022-12-03T22:20:20.576Z,157.75
2022-12-03T22:21:52.492Z,156.75
2022-12-03T22:23:24.292Z,161.50
2022-12-03T22:24:56.855Z,163.00
2022-12-03T22:26:28.699Z,154.50
2022-12-03T22:28:00.392Z,148.25
2022-12-03T22:29:32.464Z,151.00
2022-12-03T22:31:07.463Z,147.25
2022-12-03T22:32:39.131Z,145.00
2022-12-03T22:34:10.970Z,148.75
2022-12-03T22:35:42.704Z,141.25
2022-12-03T22:37:14.353Z,147.50
2022-12-03T22:38:46.033Z,149.75
2022-12-03T22:40:17.807Z,141.75
2022-12-03T22:41:49.472Z,136.25
2022-12-03T22:43:21.131Z,132.50
2022-12-03T22:44:52.831Z,136.00
2022-12-03T22:46:24.649Z,131.75
2022-12-03T22:47:56.505Z,123.50
2022-12-03T22:49:28.371Z,129.75
2022-12-03T22:51:00.056Z,131.25
2022-12-03T22:52:31.706Z,127.75
2022-12-03T22:54:03.936Z,124.25
2022-12-03T22:55:35.812Z,122.50
2022-12-03T22:57:07.535Z,119.00
2022-12-03T22:58:39.591Z,123.25
2022-12-03T23:00:11.806Z,117.25
2022-12-03T23:01:43.561Z,113.75
2022-12-03T23:03:15.386Z,118.50
2022-12-03T23:04:47.172Z,139.75
2022-12-03T23:06:18.976Z,141.50
2022-12-03T23:07:53.409Z,127.25
2022-12-03T23:09:25.136Z,137.75
2022-12-03T23:11:00.481Z,133.75
2022-12-03T23:12:33.182Z,129.25
2022-12-03T23:14:04.935Z,147.00
2022-12-03T23:15:36.762Z,136.50
2022-12-03T23:17:08.477Z,127.25
2022-12-03T23:18:40.187Z,131.25
2022-12-03T23:20:12.396Z,134.00
2022-12-03T23:21:44.133Z,137.50
2022-12-03T23:23:15.914Z,158.00
2022-12-03T23:24:48.119Z,145.50
2022-12-03T23:26:19.755Z,130.50
2022-12-03T23:27:51.476Z,144.75
2022-12-03T23:29:23.126Z,147.50
2022-12-03T23:30:55.208Z,148.75
2022-12-03T23:32:26.919Z,155.00
2022-12-03T23:34:00.037Z,151.25
